createdAt,value
2019-04-06T00:01:10.860Z,30.60
2019-04-06T00:03:39.370Z,27.77
2019-04-06T00:06:08.061Z,30.03
2019-04-06T00:08:36.759Z,29.23
2019-04-06T00:11:05.456Z,28.97
2019-04-06T00:13:33.960Z,28.87
2019-04-06T00:16:02.871Z,29.73
2019-04-06T00:18:31.419Z,29.87
2019-04-06T00:20:59.997Z,25.43
2019-04-06T00:23:28.508Z,26.37
2019-04-06T00:25:57.078Z,25.23
2019-04-06T00:28:25.743Z,27.10
2019-04-06T00:30:58.701Z,24.93
2019-04-06T00:33:28.921Z,26.17
2019-04-06T00:35:57.430Z,25.83
2019-04-06T00:38:26.087Z,28.20
2019-04-06T00:40:54.665Z,29.23
2019-04-06T00:43:23.391Z,25.23
2019-04-06T00:45:52.195Z,27.87
2019-04-06T00:48:20.786Z,25.90
2019-04-06T00:50:49.406Z,30.50
2019-04-06T00:53:17.937Z,25.10
2019-04-06T00:55:55.120Z,28.10
2019-04-06T00:58:16.780Z,23.83
2019-04-06T01:00:45.439Z,24.37
2019-04-06T01:03:14.364Z,23.90
2019-04-06T01:05:42.973Z,28.47
2019-04-06T01:08:11.517Z,23.83
2019-04-06T01:10:40.118Z,23.73
2019-04-06T01:13:08.716Z,26.40
2019-04-06T01:15:37.450Z,27.23
2019-04-06T01:18:05.974Z,22.63
2019-04-06T01:20:34.852Z,24.67
2019-04-06T01:23:03.402Z,24.77
2019-04-06T01:25:32.000Z,28.53
2019-04-06T01:28:00.540Z,24.90
2019-04-06T01:30:29.189Z,26.23
2019-04-06T01:32:57.975Z,28.13
2019-04-06T01:35:26.504Z,24.23
2019-04-06T01:37:55.230Z,25.17
2019-04-06T01:40:23.760Z,25.70
2019-04-06T01:42:52.449Z,28.60
2019-04-06T01:45:21.007Z,26.30
2019-04-06T01:47:49.706Z,22.43
2019-04-06T01:50:18.400Z,25.17
2019-04-06T01:52:47.490Z,24.40
2019-04-06T01:55:16.328Z,24.53
2019-04-06T01:57:45.051Z,24.10
2019-04-06T02:00:15.312Z,28.80
2019-04-06T02:02:48.362Z,28.47
2019-04-06T02:05:16.975Z,27.93
2019-04-06T02:07:45.579Z,26.57
2019-04-06T02:10:14.421Z,26.40
2019-04-06T02:12:43.275Z,26.67
2019-04-06T02:15:12.001Z,25.80
2019-04-06T02:17:40.660Z,28.17
2019-04-06T02:20:09.719Z,26.63
2019-04-06T02:22:38.454Z,26.33
2019-04-06T02:25:08.039Z,26.73
2019-04-06T02:27:36.845Z,26.87
2019-04-06T02:30:18.055Z,26.50
2019-04-06T02:33:04.250Z,30.07
2019-04-06T02:35:52.785Z,26.27
2019-04-06T02:38:28.949Z,26.33
2019-04-06T02:41:14.388Z,28.50
2019-04-06T02:43:42.881Z,29.40
2019-04-06T02:46:11.709Z,27.33
2019-04-06T02:48:40.478Z,26.33
2019-04-06T02:51:09.090Z,29.70
2019-04-06T02:53:37.792Z,28.00
2019-04-06T02:56:06.341Z,22.83
2019-04-06T02:58:36.482Z,26.27
2019-04-06T03:01:05.269Z,30.63
2019-04-06T03:03:33.931Z,25.90
2019-04-06T03:06:02.770Z,23.80
2019-04-06T03:08:31.559Z,29.10
2019-04-06T03:11:00.169Z,25.37
2019-04-06T03:13:28.851Z,28.23
2019-04-06T03:15:57.508Z,26.50
2019-04-06T03:18:26.119Z,25.87
2019-04-06T03:20:55.194Z,25.07
2019-04-06T03:23:24.981Z,27.23
2019-04-06T03:25:54.387Z,27.50
2019-04-06T03:28:23.052Z,23.23
2019-04-06T03:30:51.765Z,25.57
2019-04-06T03:33:20.421Z,25.27
2019-04-06T03:35:50.461Z,26.70
2019-04-06T03:38:19.517Z,27.40
2019-04-06T03:40:48.087Z,24.73
2019-04-06T03:43:16.657Z,25.63
2019-04-06T03:45:45.279Z,25.20
2019-04-06T03:48:13.858Z,27.37
2019-04-06T03:50:42.735Z,28.90
2019-04-06T03:53:11.434Z,26.53
2019-04-06T03:55:40.139Z,25.87
2019-04-06T03:58:08.660Z,26.97
2019-04-06T04:00:37.200Z,25.63
2019-04-06T04:03:05.921Z,29.97
2019-04-06T04:05:34.557Z,25.10
2019-04-06T04:08:03.114Z,24.03
2019-04-06T04:10:34.005Z,23.63
2019-04-06T04:13:02.754Z,26.17
2019-04-06T04:15:31.327Z,24.67
2019-04-06T04:18:00.698Z,23.07
2019-04-06T04:20:29.546Z,24.53
2019-04-06T04:22:58.679Z,28.77
2019-04-06T04:25:27.467Z,23.53
2019-04-06T04:27:56.270Z,28.70
2019-04-06T04:30:32.603Z,24.83
2019-04-06T04:32:55.355Z,33.63
2019-04-06T04:35:23.971Z,44.63
2019-04-06T04:37:52.863Z,42.37
2019-04-06T04:40:21.466Z,44.77
2019-04-06T04:42:50.092Z,60.20
2019-04-06T04:45:18.741Z,52.73
2019-04-06T04:47:50.036Z,50.20
2019-04-06T04:50:17.983Z,51.30
2019-04-06T04:52:46.722Z,51.70
2019-04-06T04:55:16.217Z,48.20
2019-04-06T04:57:45.609Z,42.13
2019-04-06T05:00:14.611Z,38.60
2019-04-06T05:02:43.174Z,35.07
2019-04-06T05:05:12.099Z,33.40
2019-04-06T05:07:40.623Z,35.60
2019-04-06T05:10:09.494Z,34.90
2019-04-06T05:12:38.169Z,31.70
2019-04-06T05:15:15.950Z,36.73
2019-04-06T05:17:44.489Z,34.60
2019-04-06T05:20:13.592Z,30.13
2019-04-06T05:22:42.107Z,32.60
2019-04-06T05:25:11.476Z,34.53
2019-04-06T05:27:50.778Z,30.37
2019-04-06T05:30:10.865Z,32.23
2019-04-06T05:32:39.740Z,31.40
2019-04-06T05:35:08.473Z,28.93
2019-04-06T05:37:37.059Z,30.80
2019-04-06T05:40:06.459Z,30.77
2019-04-06T05:42:35.121Z,32.57
2019-04-06T05:45:05.243Z,30.10
2019-04-06T05:47:34.215Z,29.20
2019-04-06T05:50:02.911Z,26.80
2019-04-06T05:52:31.577Z,31.03
2019-04-06T05:55:00.214Z,28.73
2019-04-06T05:57:31.813Z,31.07
2019-04-06T05:59:59.100Z,25.60
2019-04-06T06:02:27.643Z,27.40
2019-04-06T06:04:56.327Z,29.63
2019-04-06T06:07:24.861Z,29.07
2019-04-06T06:09:53.382Z,35.20
2019-04-06T06:12:22.229Z,29.53
2019-04-06T06:14:50.819Z,33.03
2019-04-06T06:17:19.464Z,31.50
2019-04-06T06:19:48.069Z,27.73
2019-04-06T06:22:16.596Z,31.10
2019-04-06T06:24:45.175Z,29.50
2019-04-06T06:27:14.181Z,27.87
2019-04-06T06:29:42.880Z,28.33
2019-04-06T06:32:11.486Z,28.43
2019-04-06T06:34:40.109Z,30.03
2019-04-06T06:37:08.912Z,36.93
2019-04-06T06:39:38.160Z,33.13
2019-04-06T06:42:07.919Z,32.03
2019-04-06T06:44:36.738Z,34.43
2019-04-06T06:47:05.390Z,34.37
2019-04-06T06:49:34.160Z,32.93
2019-04-06T06:52:02.844Z,35.10
2019-04-06T06:54:31.700Z,33.13
2019-04-06T06:57:00.731Z,32.63
2019-04-06T06:59:29.313Z,32.95
2019-04-06T07:01:57.946Z,34.17
2019-04-06T07:04:26.570Z,44.75
2019-04-06T07:06:55.019Z,36.58
2019-04-06T07:09:23.536Z,35.98
2019-04-06T07:11:53.681Z,41.20
2019-04-06T07:14:22.339Z,35.77
2019-04-06T07:16:50.851Z,34.07
2019-04-06T07:19:19.585Z,32.98
2019-04-06T07:21:48.059Z,33.53
2019-04-06T07:24:16.580Z,36.73
2019-04-06T07:26:45.161Z,34.35
2019-04-06T07:29:13.870Z,34.45
2019-04-06T07:31:42.443Z,37.30
2019-04-06T07:34:11.120Z,36.05
2019-04-06T07:36:39.610Z,40.80
2019-04-06T07:39:08.292Z,28.67
2019-04-06T07:41:37.011Z,35.35
2019-04-06T07:44:06.172Z,39.15
2019-04-06T07:46:35.174Z,36.77
2019-04-06T07:49:09.317Z,42.53
2019-04-06T07:51:34.312Z,42.50
2019-04-06T07:54:03.151Z,39.78
2019-04-06T07:56:31.657Z,38.70
2019-04-06T07:59:00.940Z,41.73
2019-04-06T08:01:29.613Z,41.18
2019-04-06T08:03:58.346Z,41.20
2019-04-06T08:06:27.214Z,44.58
2019-04-06T08:08:55.884Z,46.85
2019-04-06T08:11:24.646Z,45.92
2019-04-06T08:13:53.894Z,45.78
2019-04-06T08:16:22.615Z,43.65
2019-04-06T08:18:51.285Z,48.75
2019-04-06T08:21:20.356Z,48.28
2019-04-06T08:23:48.945Z,51.63
2019-04-06T08:26:17.809Z,45.95
2019-04-06T08:28:46.637Z,50.12
2019-04-06T08:31:16.186Z,46.18
2019-04-06T08:33:45.046Z,47.78
2019-04-06T08:36:13.629Z,46.92
2019-04-06T08:38:42.454Z,46.08
2019-04-06T08:41:11.177Z,49.00
2019-04-06T08:43:39.849Z,42.88
2019-04-06T08:46:08.516Z,55.23
2019-04-06T08:48:37.288Z,48.78
2019-04-06T08:51:06.039Z,44.77
2019-04-06T08:53:34.757Z,45.25
2019-04-06T08:56:03.347Z,48.45
2019-04-06T08:58:32.077Z,54.08
2019-04-06T09:01:00.956Z,48.87
2019-04-06T09:03:29.627Z,47.03
2019-04-06T09:05:58.371Z,79.35
2019-04-06T09:08:28.458Z,52.90
2019-04-06T09:10:57.173Z,51.45
2019-04-06T09:13:25.891Z,54.67
2019-04-06T09:15:54.549Z,55.88
2019-04-06T09:18:23.101Z,49.25
2019-04-06T09:20:51.617Z,48.42
2019-04-06T09:23:20.283Z,47.55
2019-04-06T09:25:48.859Z,42.88
2019-04-06T09:28:17.562Z,43.33
2019-04-06T09:30:47.786Z,43.90
2019-04-06T09:33:17.449Z,51.53
2019-04-06T09:35:46.470Z,44.55
2019-04-06T09:38:19.744Z,44.93
2019-04-06T09:40:51.983Z,48.08
2019-04-06T09:43:22.205Z,42.98
2019-04-06T09:46:02.347Z,39.65
2019-04-06T09:48:35.954Z,39.65
2019-04-06T09:51:23.997Z,44.95
2019-04-06T09:54:12.193Z,44.70
2019-04-06T09:56:44.131Z,43.13
2019-04-06T09:59:36.385Z,40.17
2019-04-06T10:02:10.425Z,35.92
2019-04-06T10:04:58.551Z,38.42
2019-04-06T10:07:45.423Z,35.92
2019-04-06T10:10:33.250Z,38.80
2019-04-06T10:13:19.636Z,36.88
2019-04-06T10:16:00.174Z,41.95
2019-04-06T10:18:34.905Z,38.75
2019-04-06T10:21:12.478Z,37.73
2019-04-06T10:23:50.100Z,37.48
2019-04-06T10:26:24.739Z,44.98
2019-04-06T10:29:19.851Z,38.92
2019-04-06T10:32:07.379Z,37.40
2019-04-06T10:34:40.628Z,45.40
2019-04-06T10:37:29.909Z,43.98
2019-04-06T10:40:18.220Z,39.25
2019-04-06T10:42:52.812Z,34.00
2019-04-06T10:45:46.505Z,29.20
2019-04-06T10:48:27.263Z,28.83
2019-04-06T10:51:06.552Z,33.05
2019-04-06T10:53:42.078Z,30.62
2019-04-06T10:56:16.323Z,28.32
2019-04-06T10:58:58.092Z,31.97
2019-04-06T11:01:29.811Z,29.10
2019-04-06T11:04:05.041Z,30.37
2019-04-06T11:06:41.297Z,26.82
2019-04-06T11:09:16.965Z,37.67
2019-04-06T11:11:51.215Z,26.57
2019-04-06T11:14:36.875Z,27.55
2019-04-06T11:17:27.390Z,27.87
2019-04-06T11:20:09.487Z,26.60
2019-04-06T11:22:45.056Z,23.10
2019-04-06T11:25:35.781Z,26.42
2019-04-06T11:28:28.636Z,24.90
2019-04-06T11:31:12.044Z,24.72
2019-04-06T11:33:59.004Z,28.57
2019-04-06T11:36:36.336Z,27.00
2019-04-06T11:39:15.153Z,22.85
2019-04-06T11:41:57.156Z,25.57
2019-04-06T11:44:45.400Z,23.60
2019-04-06T11:47:20.800Z,23.18
2019-04-06T11:49:59.661Z,24.85
2019-04-06T11:52:38.349Z,24.60
2019-04-06T11:55:15.112Z,24.95
2019-04-06T11:57:58.067Z,26.82
2019-04-06T12:00:34.629Z,27.80
2019-04-06T12:03:09.421Z,31.65
2019-04-06T12:05:47.616Z,38.48
2019-04-06T12:08:34.828Z,29.07
2019-04-06T12:11:12.501Z,26.80
2019-04-06T12:13:52.595Z,27.35
2019-04-06T12:16:31.441Z,27.70
2019-04-06T12:19:15.171Z,30.82
2019-04-06T12:22:07.372Z,31.73
2019-04-06T12:25:00.521Z,33.83
2019-04-06T12:27:39.527Z,28.27
2019-04-06T12:30:15.240Z,30.30
2019-04-06T12:33:02.329Z,29.00
2019-04-06T12:35:38.700Z,29.32
2019-04-06T12:38:16.635Z,27.20
2019-04-06T12:41:01.252Z,28.62
2019-04-06T12:43:45.367Z,26.68
2019-04-06T12:46:20.245Z,27.05
2019-04-06T12:49:04.902Z,28.77
2019-04-06T12:51:40.878Z,24.98
2019-04-06T12:54:23.830Z,27.15
2019-04-06T12:57:01.012Z,30.23
2019-04-06T12:59:35.313Z,31.15
2019-04-06T13:02:25.122Z,31.52
2019-04-06T13:05:16.657Z,26.57
2019-04-06T13:07:52.972Z,27.37
2019-04-06T13:10:28.516Z,29.15
2019-04-06T13:13:10.141Z,29.77
2019-04-06T13:15:51.375Z,29.27
2019-04-06T13:18:35.231Z,25.72
2019-04-06T13:21:12.521Z,28.38
2019-04-06T13:23:49.866Z,25.80
2019-04-06T13:26:41.348Z,24.85
2019-04-06T13:29:16.119Z,29.50
2019-04-06T13:32:01.796Z,25.60
2019-04-06T13:34:52.250Z,25.00
2019-04-06T13:37:26.496Z,26.60
2019-04-06T13:40:03.244Z,32.30
2019-04-06T13:42:54.023Z,27.95
2019-04-06T13:45:42.460Z,30.50
2019-04-06T13:48:22.459Z,31.90
2019-04-06T13:51:01.303Z,28.38
2019-04-06T13:53:55.050Z,33.35
2019-04-06T13:56:46.736Z,26.65
2019-04-06T13:59:28.086Z,29.98
2019-04-06T14:02:06.840Z,36.42
2019-04-06T14:04:42.130Z,29.95
2019-04-06T14:07:27.080Z,30.40
2019-04-06T14:10:15.550Z,33.65
2019-04-06T14:12:48.471Z,29.72
2019-04-06T14:15:34.203Z,30.60
2019-04-06T14:18:21.747Z,27.40
2019-04-06T14:21:13.484Z,29.30
2019-04-06T14:23:46.291Z,24.60
2019-04-06T14:26:25.416Z,27.55
2019-04-06T14:29:08.371Z,25.35
2019-04-06T14:31:57.841Z,24.50
2019-04-06T14:34:50.010Z,22.37
2019-04-06T14:37:24.850Z,27.20
2019-04-06T14:40:13.962Z,27.85
2019-04-06T14:42:51.423Z,24.45
2019-04-06T14:45:32.227Z,25.82
2019-04-06T14:48:10.693Z,26.40
2019-04-06T14:50:41.240Z,27.02
2019-04-06T14:53:16.130Z,34.53
2019-04-06T14:55:57.108Z,27.82
2019-04-06T14:58:41.342Z,28.45
2019-04-06T15:01:20.543Z,26.12
2019-04-06T15:04:02.596Z,30.12
2019-04-06T15:06:37.775Z,27.10
2019-04-06T15:09:26.763Z,28.23
2019-04-06T15:12:19.240Z,33.73
2019-04-06T15:14:53.489Z,37.85
2019-04-06T15:17:27.967Z,31.85
2019-04-06T15:20:11.187Z,39.33
2019-04-06T15:23:01.960Z,34.60
2019-04-06T15:25:41.216Z,29.92
2019-04-06T15:28:24.539Z,31.62
2019-04-06T15:30:55.751Z,31.42
2019-04-06T15:33:46.159Z,33.63
2019-04-06T15:36:36.498Z,36.48
2019-04-06T15:39:16.119Z,32.48
2019-04-06T15:42:06.964Z,31.90
2019-04-06T15:44:41.356Z,30.68
2019-04-06T15:47:31.785Z,31.70
2019-04-06T15:50:19.609Z,35.10
2019-04-06T15:53:02.889Z,33.05
2019-04-06T15:55:37.343Z,29.65
2019-04-06T15:58:26.339Z,28.95
2019-04-06T16:01:02.816Z,33.78
2019-04-06T16:03:50.610Z,33.30
2019-04-06T16:06:30.188Z,26.20
2019-04-06T16:09:19.189Z,29.12
2019-04-06T16:12:09.475Z,28.70
2019-04-06T16:14:49.694Z,33.85
2019-04-06T16:17:24.206Z,31.65
2019-04-06T16:19:56.607Z,27.52
2019-04-06T16:22:40.605Z,28.15
2019-04-06T16:25:27.212Z,31.15
2019-04-06T16:28:05.001Z,31.93
2019-04-06T16:30:42.610Z,29.25
2019-04-06T16:33:21.383Z,34.20
2019-04-06T16:36:00.097Z,30.27
2019-04-06T16:38:41.537Z,28.23
2019-04-06T16:41:33.784Z,30.80
2019-04-06T16:44:09.342Z,30.85
2019-04-06T16:47:01.511Z,30.15
2019-04-06T16:49:40.425Z,30.97
2019-04-06T16:52:12.643Z,29.45
2019-04-06T16:54:54.471Z,32.55
2019-04-06T16:57:47.054Z,28.27
2019-04-06T17:00:30.845Z,29.48
2019-04-06T17:03:10.691Z,26.17
2019-04-06T17:06:05.087Z,27.27
2019-04-06T17:08:42.536Z,27.15
2019-04-06T17:11:19.893Z,27.60
2019-04-06T17:14:04.504Z,24.18
2019-04-06T17:16:39.123Z,29.12
2019-04-06T17:19:31.244Z,25.23
2019-04-06T17:22:14.788Z,23.62
2019-04-06T17:24:50.292Z,26.25
2019-04-06T17:27:21.960Z,25.10
2019-04-06T17:29:57.610Z,28.27
2019-04-06T17:32:40.015Z,26.27
2019-04-06T17:35:15.813Z,28.45
2019-04-06T17:37:52.167Z,26.33
2019-04-06T17:40:46.217Z,26.62
2019-04-06T17:43:31.984Z,32.90
2019-04-06T17:46:12.807Z,36.83
2019-04-06T17:48:49.561Z,39.55
2019-04-06T17:51:40.839Z,39.90
2019-04-06T17:54:32.092Z,35.95
2019-04-06T17:57:21.041Z,35.45
2019-04-06T17:59:57.342Z,33.20
2019-04-06T18:02:50.907Z,38.35
2019-04-06T18:05:37.341Z,38.88
2019-04-06T18:08:28.158Z,37.38
2019-04-06T18:11:18.811Z,33.25
2019-04-06T18:13:57.751Z,35.58
2019-04-06T18:16:32.893Z,37.00
2019-04-06T18:19:04.548Z,35.28
2019-04-06T18:21:39.146Z,36.70
2019-04-06T18:24:11.174Z,34.15
2019-04-06T18:26:42.530Z,34.30
2019-04-06T18:29:17.435Z,30.47
2019-04-06T18:31:51.804Z,34.23
2019-04-06T18:34:26.658Z,32.50
2019-04-06T18:37:01.375Z,38.13
2019-04-06T18:39:32.538Z,36.55
2019-04-06T18:42:06.753Z,36.33
2019-04-06T18:44:37.961Z,38.40
2019-04-06T18:47:12.950Z,42.43
2019-04-06T18:49:44.301Z,44.93
2019-04-06T18:52:15.570Z,51.90
2019-04-06T18:54:46.897Z,56.13
2019-04-06T18:57:21.934Z,56.87
2019-04-06T18:59:53.105Z,59.70
2019-04-06T19:02:25.011Z,59.13
2019-04-06T19:04:56.926Z,54.80
2019-04-06T19:07:28.293Z,53.07
2019-04-06T19:10:02.830Z,56.50
2019-04-06T19:12:35.228Z,51.80
2019-04-06T19:15:09.558Z,54.60
2019-04-06T19:17:42.314Z,51.60
2019-04-06T19:20:12.872Z,51.70
2019-04-06T19:22:47.946Z,53.43
2019-04-06T19:25:19.649Z,48.53
2019-04-06T19:27:49.780Z,46.50
2019-04-06T19:30:21.307Z,46.40
2019-04-06T19:32:52.532Z,51.87
2019-04-06T19:35:23.771Z,50.73
2019-04-06T19:37:55.219Z,47.37
2019-04-06T19:40:26.953Z,49.23
2019-04-06T19:42:58.221Z,52.13
2019-04-06T19:45:30.360Z,49.50
2019-04-06T19:48:02.066Z,53.00
2019-04-06T19:50:33.715Z,52.03
2019-04-06T19:53:04.910Z,52.23
2019-04-06T19:55:36.140Z,53.27
2019-04-06T19:58:08.890Z,56.53
2019-04-06T20:00:39.197Z,51.83
2019-04-06T20:03:11.066Z,52.83
2019-04-06T20:05:42.423Z,51.03
2019-04-06T20:08:14.203Z,53.17
2019-04-06T20:10:45.378Z,53.57
2019-04-06T20:13:19.959Z,55.57
2019-04-06T20:15:51.241Z,56.70
2019-04-06T20:18:21.475Z,50.70
2019-04-06T20:20:57.649Z,54.17
2019-04-06T20:23:28.810Z,55.10
2019-04-06T20:25:58.963Z,51.80
2019-04-06T20:28:28.921Z,48.93
2019-04-06T20:31:00.257Z,48.47
2019-04-06T20:33:45.985Z,60.50
2019-04-06T20:36:05.017Z,51.37
2019-04-06T20:38:36.726Z,54.03
2019-04-06T20:41:07.468Z,52.37
2019-04-06T20:43:38.810Z,51.47
2019-04-06T20:46:10.062Z,50.30
2019-04-06T20:48:44.828Z,48.57
2019-04-06T20:51:15.871Z,44.23
2019-04-06T20:53:47.937Z,47.53
2019-04-06T20:56:22.530Z,44.33
2019-04-06T20:58:53.855Z,36.37
2019-04-06T21:01:28.761Z,38.93
2019-04-06T21:04:02.622Z,47.53
2019-04-06T21:06:35.169Z,44.13
2019-04-06T21:09:10.132Z,47.73
2019-04-06T21:11:39.421Z,50.20
2019-04-06T21:14:11.150Z,45.93
2019-04-06T21:16:42.682Z,45.60
2019-04-06T21:19:15.872Z,38.17
2019-04-06T21:21:50.407Z,38.30
2019-04-06T21:24:19.507Z,43.03
2019-04-06T21:26:50.728Z,44.00
2019-04-06T21:29:21.892Z,42.37
2019-04-06T21:31:53.251Z,40.33
2019-04-06T21:34:28.139Z,41.53
2019-04-06T21:37:03.021Z,39.83
2019-04-06T21:39:34.251Z,36.70
2019-04-06T21:42:05.704Z,39.47
2019-04-06T21:44:36.938Z,41.47
2019-04-06T21:47:08.342Z,36.57
2019-04-06T21:49:38.977Z,33.97
2019-04-06T21:52:10.224Z,37.87
2019-04-06T21:54:41.429Z,32.60
2019-04-06T21:57:12.907Z,32.63
2019-04-06T21:59:44.099Z,33.50
2019-04-06T22:02:15.820Z,36.63
2019-04-06T22:04:47.079Z,36.20
2019-04-06T22:07:17.793Z,35.83
2019-04-06T22:09:49.200Z,37.17
2019-04-06T22:12:20.348Z,35.37
2019-04-06T22:14:51.637Z,36.13
2019-04-06T22:17:23.274Z,37.80
2019-04-06T22:19:56.585Z,35.73
2019-04-06T22:22:27.677Z,34.33
2019-04-06T22:24:58.939Z,34.10
2019-04-06T22:27:30.167Z,36.80
2019-04-06T22:30:03.599Z,33.50
2019-04-06T22:32:35.442Z,33.50
2019-04-06T22:35:11.032Z,33.40
2019-04-06T22:37:42.634Z,30.30
2019-04-06T22:40:13.241Z,26.67
2019-04-06T22:42:45.115Z,27.13
2019-04-06T22:45:19.007Z,27.40
2019-04-06T22:47:50.829Z,30.43
2019-04-06T22:50:22.099Z,27.07
2019-04-06T22:52:53.276Z,33.20
2019-04-06T22:55:27.792Z,33.10
2019-04-06T22:57:59.804Z,34.60
2019-04-06T23:00:37.729Z,35.87
2019-04-06T23:03:21.226Z,33.60
2019-04-06T23:06:04.041Z,33.03
2019-04-06T23:08:38.387Z,29.60
2019-04-06T23:11:09.634Z,35.07
2019-04-06T23:13:40.803Z,29.53
2019-04-06T23:16:12.636Z,31.73
2019-04-06T23:18:41.347Z,30.33
2019-04-06T23:21:15.790Z,31.93
2019-04-06T23:23:47.432Z,33.37
2019-04-06T23:26:22.051Z,35.87
2019-04-06T23:28:53.885Z,36.67
2019-04-06T23:31:24.343Z,33.30
2019-04-06T23:33:58.514Z,33.40
2019-04-06T23:36:29.190Z,36.10
2019-04-06T23:39:00.459Z,34.67
2019-04-06T23:41:32.293Z,37.00
2019-04-06T23:44:03.430Z,36.43
2019-04-06T23:46:35.031Z,36.40
2019-04-06T23:49:06.514Z,36.83
2019-04-06T23:51:41.508Z,37.47
2019-04-06T23:54:12.770Z,39.50
2019-04-06T23:56:43.931Z,37.03
2019-04-06T23:59:14.179Z,36.37
